createdAt,value
2022-08-25T00:02:08.963Z,94830.81
2022-08-25T00:04:37.191Z,94827.13
2022-08-25T00:07:06.062Z,94825.31
2022-08-25T00:09:34.340Z,94820.59
2022-08-25T00:12:02.345Z,94824.53
2022-08-25T00:14:33.843Z,94818.44
2022-08-25T00:17:01.389Z,94812.19
2022-08-25T00:19:32.637Z,94808.81
2022-08-25T00:22:01.017Z,94814.75
2022-08-25T00:24:28.237Z,94825.84
2022-08-25T00:26:58.412Z,94825.34
2022-08-25T00:29:29.604Z,94826.16
2022-08-25T00:31:58.301Z,94829.88
2022-08-25T00:34:30.444Z,94825.94
2022-08-25T00:36:57.595Z,94826.50
2022-08-25T00:39:24.995Z,94822.88
2022-08-25T00:41:54.381Z,94822.34
2022-08-25T00:44:21.233Z,94826.59
2022-08-25T00:46:53.988Z,94816.28
2022-08-25T00:49:38.764Z,94808.06
2022-08-25T00:52:22.469Z,94803.31
2022-08-25T00:55:01.902Z,94802.72
2022-08-25T00:57:36.446Z,94802.72
2022-08-25T01:00:13.256Z,94792.75
2022-08-25T01:02:40.311Z,94800.94
2022-08-25T01:05:08.914Z,94792.75
2022-08-25T01:07:36.932Z,94802.16
2022-08-25T01:10:07.696Z,94807.91
2022-08-25T01:12:36.493Z,94806.84
2022-08-25T01:15:06.285Z,94812.66
2022-08-25T01:17:54.503Z,94802.06
2022-08-25T01:20:23.794Z,94810.50
2022-08-25T01:22:57.446Z,94803.75
2022-08-25T01:26:01.936Z,94806.28
2022-08-25T01:28:28.755Z,94802.06
2022-08-25T01:30:56.018Z,94812.06
2022-08-25T01:33:23.396Z,94813.13
2022-08-25T01:35:50.245Z,94812.13
2022-08-25T01:38:17.340Z,94796.84
2022-08-25T01:40:44.370Z,94813.63
2022-08-25T01:43:11.732Z,94811.44
2022-08-25T01:45:41.845Z,94810.84
2022-08-25T01:48:09.741Z,94812.41
2022-08-25T01:50:37.146Z,94814.47
2022-08-25T01:53:03.921Z,94809.22
2022-08-25T01:55:51.380Z,94806.28
2022-08-25T01:58:20.282Z,94771.41
2022-08-25T02:00:49.090Z,94801.53
2022-08-25T02:03:20.883Z,94799.50
2022-08-25T02:05:49.185Z,94798.72
2022-08-25T02:08:16.077Z,94803.53
2022-08-25T02:10:42.919Z,94801.53
2022-08-25T02:13:10.177Z,94794.91
2022-08-25T02:15:46.470Z,94781.44
2022-08-25T02:18:14.245Z,94778.53
2022-08-25T02:20:41.700Z,94780.44
2022-08-25T02:23:08.557Z,94777.72
2022-08-25T02:25:36.890Z,94773.47
2022-08-25T02:28:04.265Z,94764.75
2022-08-25T02:30:31.392Z,94763.72
2022-08-25T02:32:59.657Z,94768.25
2022-08-25T02:35:26.757Z,94771.91
2022-08-25T02:37:54.544Z,94767.63
2022-08-25T02:40:21.903Z,94764.00
2022-08-25T02:42:49.908Z,94775.63
2022-08-25T02:45:17.169Z,94773.59
2022-08-25T02:47:44.598Z,94773.34
2022-08-25T02:50:11.878Z,94763.41
2022-08-25T02:52:40.155Z,94777.22
2022-08-25T02:55:11.409Z,94787.66
2022-08-25T02:57:38.183Z,94782.69
2022-08-25T03:00:06.398Z,94783.28
2022-08-25T03:02:33.775Z,94790.66
2022-08-25T03:05:00.872Z,94796.53
2022-08-25T03:07:27.810Z,94794.72
2022-08-25T03:09:56.828Z,94795.56
2022-08-25T03:12:23.693Z,94799.50
2022-08-25T03:14:50.469Z,94788.75
2022-08-25T03:17:17.733Z,94789.53
2022-08-25T03:19:44.567Z,94794.75
2022-08-25T03:22:11.330Z,94803.44
2022-08-25T03:24:38.120Z,94770.38
2022-08-25T03:27:05.439Z,94802.56
2022-08-25T03:29:33.361Z,94794.97
2022-08-25T03:32:01.231Z,94796.25
2022-08-25T03:34:30.201Z,94788.66
2022-08-25T03:36:58.306Z,94798.06
2022-08-25T03:39:26.568Z,94795.97
2022-08-25T03:41:53.936Z,94785.47
2022-08-25T03:44:21.709Z,94794.41
2022-08-25T03:46:52.054Z,94789.13
2022-08-25T03:49:23.717Z,94782.59
2022-08-25T03:51:52.756Z,94797.53
2022-08-25T03:54:23.856Z,94783.88
2022-08-25T03:56:50.669Z,94784.44
2022-08-25T03:59:18.946Z,94789.13
2022-08-25T04:01:51.360Z,94799.66
2022-08-25T04:04:20.950Z,94793.63
2022-08-25T04:06:47.757Z,94787.34
2022-08-25T04:09:14.633Z,94793.91
2022-08-25T04:11:42.588Z,94776.56
2022-08-25T04:14:09.855Z,94781.81
2022-08-25T04:16:43.269Z,94774.72
2022-08-25T04:19:10.363Z,94760.81
2022-08-25T04:21:39.006Z,94769.72
2022-08-25T04:24:08.027Z,94770.25
2022-08-25T04:26:44.734Z,94788.13
2022-08-25T04:29:13.639Z,94790.25
2022-08-25T04:31:43.001Z,94791.28
2022-08-25T04:34:17.687Z,94801.25
2022-08-25T04:37:03.706Z,94803.28
2022-08-25T04:39:31.135Z,94806.97
2022-08-25T04:41:58.706Z,94814.84
2022-08-25T04:44:25.567Z,94802.97
2022-08-25T04:46:52.353Z,94802.69
2022-08-25T04:49:19.496Z,94812.03
2022-08-25T04:51:46.529Z,94813.00
2022-08-25T04:54:17.078Z,94819.28
2022-08-25T04:56:45.297Z,94817.06
2022-08-25T04:59:13.884Z,94793.84
2022-08-25T05:01:42.765Z,94801.16
2022-08-25T05:04:14.634Z,94802.13
2022-08-25T05:06:55.001Z,94802.06
2022-08-25T05:09:21.873Z,94804.91
2022-08-25T05:11:50.109Z,94809.81
2022-08-25T05:14:21.590Z,94804.00
2022-08-25T05:16:52.442Z,94794.44
2022-08-25T05:19:19.521Z,94797.34
2022-08-25T05:21:46.354Z,94786.63
2022-08-25T05:24:13.120Z,94794.44
2022-08-25T05:26:39.960Z,94782.78
2022-08-25T05:29:06.966Z,94775.94
2022-08-25T05:31:36.432Z,94778.78
2022-08-25T05:34:10.366Z,94795.22
2022-08-25T05:36:38.485Z,94784.53
2022-08-25T05:39:05.518Z,94792.88
2022-08-25T05:41:33.503Z,94790.00
2022-08-25T05:44:00.389Z,94793.56
2022-08-25T05:46:27.295Z,94790.31
2022-08-25T05:48:58.920Z,94797.00
2022-08-25T05:51:26.871Z,94798.72
2022-08-25T05:53:54.145Z,94789.97
2022-08-25T05:56:21.495Z,94794.53
2022-08-25T05:58:48.840Z,94794.69
2022-08-25T06:01:48.195Z,94799.97
2022-08-25T06:04:18.280Z,94799.22
2022-08-25T06:06:45.141Z,94807.53
2022-08-25T06:09:12.304Z,94795.81
2022-08-25T06:11:40.388Z,94786.44
2022-08-25T06:14:09.769Z,94797.38
2022-08-25T06:16:37.501Z,94795.63
2022-08-25T06:19:04.825Z,94792.31
2022-08-25T06:21:31.660Z,94788.03
2022-08-25T06:23:58.522Z,94793.31
2022-08-25T06:26:25.685Z,94794.47
2022-08-25T06:28:53.290Z,94791.75
2022-08-25T06:31:22.425Z,94796.09
2022-08-25T06:33:50.344Z,94800.69
2022-08-25T06:36:17.263Z,94793.84
2022-08-25T06:38:44.073Z,94788.44
2022-08-25T06:41:10.953Z,94788.44
2022-08-25T06:43:38.150Z,94800.19
2022-08-25T06:46:09.266Z,94791.78
2022-08-25T06:48:36.120Z,94787.84
2022-08-25T06:51:10.647Z,94804.94
2022-08-25T06:53:41.727Z,94805.75
2022-08-25T06:56:09.740Z,94804.72
2022-08-25T06:58:36.879Z,94813.06
2022-08-25T07:01:15.707Z,94799.22
2022-08-25T07:03:46.639Z,94803.38
2022-08-25T07:06:14.932Z,94803.53
2022-08-25T07:08:46.670Z,94806.66
2022-08-25T07:11:18.270Z,94806.44
2022-08-25T07:13:45.984Z,94806.88
2022-08-25T07:16:15.526Z,94811.53
2022-08-25T07:18:44.202Z,94802.19
2022-08-25T07:21:12.786Z,94804.03
2022-08-25T07:23:43.402Z,94794.72
2022-08-25T07:26:27.133Z,94804.44
2022-08-25T07:28:59.809Z,94789.03
2022-08-25T07:31:29.716Z,94808.13
2022-08-25T07:34:16.283Z,94811.09
2022-08-25T07:36:44.150Z,94805.22
2022-08-25T07:39:11.557Z,94806.63
2022-08-25T07:41:41.228Z,94801.84
2022-08-25T07:44:10.970Z,94807.78
2022-08-25T07:46:38.314Z,94802.19
2022-08-25T07:49:16.471Z,94802.28
2022-08-25T07:52:04.322Z,94809.81
2022-08-25T07:54:33.920Z,94808.09
2022-08-25T07:57:03.678Z,94801.06
2022-08-25T07:59:31.175Z,94799.81
2022-08-25T08:02:17.836Z,94789.00
2022-08-25T08:04:50.536Z,94796.84
2022-08-25T08:07:23.144Z,94785.41
2022-08-25T08:10:05.299Z,94788.59
2022-08-25T08:12:38.197Z,94791.66
2022-08-25T08:15:10.087Z,94785.00
2022-08-25T08:17:38.951Z,94785.19
2022-08-25T08:20:09.020Z,94783.41
2022-08-25T08:22:37.196Z,94785.47
2022-08-25T08:25:04.775Z,94782.47
2022-08-25T08:27:37.390Z,94778.78
2022-08-25T08:30:06.342Z,94780.19
2022-08-25T08:32:53.291Z,94781.50
2022-08-25T08:35:19.998Z,94782.59
2022-08-25T08:37:46.934Z,94782.22
2022-08-25T08:40:20.997Z,94776.31
2022-08-25T08:43:18.557Z,94772.47
2022-08-25T08:45:52.002Z,94779.41
2022-08-25T08:48:28.525Z,94778.28
2022-08-25T08:51:23.170Z,94779.66
2022-08-25T08:53:57.248Z,94778.22
2022-08-25T08:56:35.018Z,94779.22
2022-08-25T08:59:09.213Z,94784.91
2022-08-25T09:01:46.903Z,94773.78
2022-08-25T09:04:29.564Z,94781.56
2022-08-25T09:06:59.902Z,94775.34
2022-08-25T09:09:35.734Z,94778.13
2022-08-25T09:12:27.856Z,94787.34
2022-08-25T09:15:12.969Z,94794.69
2022-08-25T09:17:43.409Z,94784.13
2022-08-25T09:20:43.034Z,94782.94
2022-08-25T09:24:00.915Z,94778.81
2022-08-25T09:26:43.305Z,94777.13
2022-08-25T09:29:16.626Z,94783.09
2022-08-25T09:31:44.867Z,94751.66
2022-08-25T09:34:28.451Z,94776.69
2022-08-25T09:36:55.239Z,94777.78
2022-08-25T09:39:23.903Z,94783.63
2022-08-25T09:41:56.707Z,94781.28
2022-08-25T09:44:32.281Z,94771.78
2022-08-25T09:47:05.464Z,94781.78
2022-08-25T09:49:44.036Z,94774.00
2022-08-25T09:52:34.529Z,94769.41
2022-08-25T09:55:16.170Z,94782.44
2022-08-25T09:57:42.989Z,94779.03
2022-08-25T10:00:21.668Z,94773.41
2022-08-25T10:03:06.450Z,94783.53
2022-08-25T10:05:40.034Z,94776.81
2022-08-25T10:08:24.650Z,94778.81
2022-08-25T10:10:58.302Z,94773.72
2022-08-25T10:13:49.360Z,94764.75
2022-08-25T10:16:30.848Z,94766.72
2022-08-25T10:19:08.823Z,94771.31
2022-08-25T10:21:39.303Z,94761.72
2022-08-25T10:24:08.616Z,94763.59
2022-08-25T10:26:48.572Z,94763.69
2022-08-25T10:29:21.452Z,94765.13
2022-08-25T10:31:56.206Z,94767.28
2022-08-25T10:34:44.439Z,94762.44
2022-08-25T10:37:59.234Z,94755.72
2022-08-25T10:40:33.624Z,94759.44
2022-08-25T10:43:19.102Z,94753.44
2022-08-25T10:45:52.627Z,94757.63
2022-08-25T10:48:35.145Z,94758.75
2022-08-25T10:51:36.277Z,94750.16
2022-08-25T10:54:04.251Z,94745.78
2022-08-25T10:56:40.237Z,94739.94
2022-08-25T10:59:21.166Z,94741.84
2022-08-25T11:02:03.389Z,94736.78
2022-08-25T11:04:43.610Z,94742.50
2022-08-25T11:07:19.676Z,94749.91
2022-08-25T11:09:51.125Z,94738.38
2022-08-25T11:12:23.986Z,94736.53
2022-08-25T11:14:58.450Z,94718.03
2022-08-25T11:17:28.951Z,94730.00
2022-08-25T11:20:01.561Z,94729.47
2022-08-25T11:22:59.167Z,94725.53
2022-08-25T11:25:35.120Z,94723.59
2022-08-25T11:28:30.807Z,94722.75
2022-08-25T11:31:00.767Z,94700.38
2022-08-25T11:33:30.571Z,94707.22
2022-08-25T11:36:05.607Z,94703.81
2022-08-25T11:39:05.287Z,94707.84
2022-08-25T11:41:49.941Z,94708.44
2022-08-25T11:44:20.136Z,94706.09
2022-08-25T11:47:21.165Z,94702.97
2022-08-25T11:49:53.324Z,94708.56
2022-08-25T11:52:38.467Z,94705.63
2022-08-25T11:55:23.364Z,94704.28
2022-08-25T11:57:53.611Z,94697.84
2022-08-25T12:00:20.575Z,94705.19
2022-08-25T12:02:50.850Z,94696.88
2022-08-25T12:05:17.637Z,94707.91
2022-08-25T12:07:47.627Z,94703.13
2022-08-25T12:10:19.466Z,94711.16
2022-08-25T12:12:46.554Z,94712.94
2022-08-25T12:15:24.596Z,94706.06
2022-08-25T12:18:12.929Z,94707.75
2022-08-25T12:20:55.978Z,94697.00
2022-08-25T12:23:34.054Z,94711.03
2022-08-25T12:26:18.842Z,94718.44
2022-08-25T12:28:51.610Z,94716.59
2022-08-25T12:31:30.123Z,94708.59
2022-08-25T12:34:08.423Z,94710.81
2022-08-25T12:36:39.643Z,94709.38
2022-08-25T12:39:24.567Z,94714.22
2022-08-25T12:42:32.615Z,94708.44
2022-08-25T12:45:34.177Z,94702.25
2022-08-25T12:48:28.838Z,94707.34
2022-08-25T12:51:07.558Z,94713.69
2022-08-25T12:53:39.160Z,94708.22
2022-08-25T12:56:23.439Z,94707.03
2022-08-25T12:59:02.974Z,94703.47
2022-08-25T13:01:56.763Z,94700.56
2022-08-25T13:05:17.630Z,94698.03
2022-08-25T13:07:56.096Z,94689.31
2022-08-25T13:10:48.424Z,94686.81
2022-08-25T13:13:33.817Z,94694.97
2022-08-25T13:16:10.107Z,94705.28
2022-08-25T13:18:39.165Z,94700.13
2022-08-25T13:21:17.585Z,94696.81
2022-08-25T13:23:48.548Z,94697.91
2022-08-25T13:26:23.473Z,94688.38
2022-08-25T13:28:59.805Z,94699.88
2022-08-25T13:31:29.659Z,94697.75
2022-08-25T13:34:02.292Z,94700.69
2022-08-25T13:36:55.410Z,94692.63
2022-08-25T13:39:52.648Z,94693.16
2022-08-25T13:42:16.491Z,94689.44
2022-08-25T13:44:52.396Z,94694.22
2022-08-25T13:47:44.988Z,94693.50
2022-08-25T13:50:28.822Z,94694.84
2022-08-25T13:53:11.549Z,94692.84
2022-08-25T13:56:02.251Z,94699.69
2022-08-25T13:58:44.343Z,94693.56
2022-08-25T14:01:22.696Z,94690.78
2022-08-25T14:04:33.114Z,94689.72
2022-08-25T14:07:13.422Z,94685.28
2022-08-25T14:09:48.489Z,94685.03
2022-08-25T14:12:46.397Z,94684.34
2022-08-25T14:15:22.147Z,94686.19
2022-08-25T14:18:01.957Z,94682.69
2022-08-25T14:20:31.876Z,94684.81
2022-08-25T14:23:16.265Z,94679.53
2022-08-25T14:25:47.346Z,94676.44
2022-08-25T14:28:18.794Z,94683.38
2022-08-25T14:30:59.852Z,94675.03
2022-08-25T14:33:33.135Z,94692.78
2022-08-25T14:36:02.870Z,94691.66
2022-08-25T14:38:29.678Z,94686.78
2022-08-25T14:40:59.278Z,94682.38
2022-08-25T14:43:31.491Z,94676.81
2022-08-25T14:46:02.509Z,94680.00
2022-08-25T14:48:35.633Z,94663.69
2022-08-25T14:51:04.294Z,94680.41
2022-08-25T14:53:32.113Z,94680.38
2022-08-25T14:55:59.499Z,94676.34
2022-08-25T14:58:27.063Z,94682.66
2022-08-25T15:00:54.284Z,94679.53
2022-08-25T15:03:44.472Z,94674.44
2022-08-25T15:06:16.658Z,94678.22
2022-08-25T15:09:02.879Z,94673.94
2022-08-25T15:11:31.770Z,94678.75
2022-08-25T15:14:02.363Z,94677.38
2022-08-25T15:16:35.485Z,94685.38
2022-08-25T15:19:06.660Z,94685.22
2022-08-25T15:21:35.629Z,94687.41
2022-08-25T15:24:03.793Z,94685.81
2022-08-25T15:26:31.329Z,94692.47
2022-08-25T15:28:59.468Z,94703.09
2022-08-25T15:31:26.848Z,94706.50
2022-08-25T15:33:53.789Z,94697.59
2022-08-25T15:36:24.842Z,94699.31
2022-08-25T15:38:52.640Z,94706.84
2022-08-25T15:41:21.017Z,94694.56
2022-08-25T15:43:51.588Z,94694.97
2022-08-25T15:46:21.927Z,94693.88
2022-08-25T15:48:48.779Z,94700.13
2022-08-25T15:51:17.745Z,94693.13
2022-08-25T15:53:45.675Z,94693.88
2022-08-25T15:56:26.818Z,94697.59
2022-08-25T15:58:55.587Z,94689.56
2022-08-25T16:01:26.744Z,94693.78
2022-08-25T16:03:54.104Z,94691.34
2022-08-25T16:06:21.573Z,94686.09
2022-08-25T16:08:48.832Z,94681.41
2022-08-25T16:11:18.829Z,94680.66
2022-08-25T16:13:47.639Z,94674.41
2022-08-25T16:16:16.710Z,94676.94
2022-08-25T16:18:44.622Z,94682.75
2022-08-25T16:21:14.147Z,94676.53
2022-08-25T16:23:41.673Z,94681.25
2022-08-25T16:26:11.078Z,94676.50
2022-08-25T16:28:43.899Z,94685.63
2022-08-25T16:31:13.181Z,94680.09
2022-08-25T16:36:15.909Z,94681.19
2022-08-25T16:38:48.887Z,94684.00
2022-08-25T16:41:20.703Z,94691.28
2022-08-25T16:43:47.662Z,94683.25
2022-08-25T16:46:17.423Z,94695.94
2022-08-25T16:48:44.934Z,94678.63
2022-08-25T16:51:14.736Z,94683.59
2022-08-25T16:54:00.577Z,94688.75
2022-08-25T16:56:28.423Z,94693.50
2022-08-25T16:58:58.448Z,94699.47
2022-08-25T17:01:26.660Z,94694.44
2022-08-25T17:03:55.823Z,94700.13
2022-08-25T17:06:25.212Z,94701.25
2022-08-25T17:08:52.689Z,94697.44
2022-08-25T17:11:27.215Z,94697.91
2022-08-25T17:13:57.236Z,94690.13
2022-08-25T17:16:27.975Z,94690.13
2022-08-25T17:18:55.857Z,94690.69
2022-08-25T17:21:24.820Z,94684.31
2022-08-25T17:23:53.267Z,94679.81
2022-08-25T17:26:20.328Z,94689.81
2022-08-25T17:28:55.190Z,94690.56
2022-08-25T17:31:23.081Z,94693.06
2022-08-25T17:33:52.370Z,94688.75
2022-08-25T17:36:19.859Z,94695.78
2022-08-25T17:38:56.901Z,94692.16
2022-08-25T17:41:24.195Z,94688.06
2022-08-25T17:43:51.047Z,94693.31
2022-08-25T17:46:18.232Z,94688.97
2022-08-25T17:48:45.253Z,94690.25
2022-08-25T17:51:12.386Z,94693.75
2022-08-25T17:53:39.275Z,94691.75
2022-08-25T17:56:09.832Z,94688.97
2022-08-25T17:58:37.489Z,94690.09
2022-08-25T18:01:05.455Z,94680.75
2022-08-25T18:03:33.270Z,94694.50
2022-08-25T18:06:00.526Z,94696.72
2022-08-25T18:08:34.883Z,94701.41
2022-08-25T18:11:04.715Z,94694.25
2022-08-25T18:13:31.743Z,94701.16
2022-08-25T18:15:59.131Z,94698.06
2022-08-25T18:18:27.309Z,94703.69
2022-08-25T18:20:54.116Z,94701.81
2022-08-25T18:23:21.124Z,94697.78
2022-08-25T18:25:49.112Z,94700.28
2022-08-25T18:28:16.351Z,94697.75
2022-08-25T18:30:43.868Z,94696.19
2022-08-25T18:33:12.093Z,94704.44
2022-08-25T18:35:39.048Z,94701.31
2022-08-25T18:38:25.685Z,94695.09
2022-08-25T18:41:00.625Z,94707.22
2022-08-25T18:43:31.906Z,94699.88
2022-08-25T18:46:04.161Z,94692.84
2022-08-25T18:48:32.306Z,94703.28
2022-08-25T18:51:01.033Z,94694.81
2022-08-25T18:53:30.713Z,94705.69
2022-08-25T18:56:04.521Z,94692.81
2022-08-25T18:58:31.744Z,94680.31
2022-08-25T19:01:00.871Z,94700.56
2022-08-25T19:03:29.707Z,94707.00
2022-08-25T19:05:57.867Z,94695.66
2022-08-25T19:08:24.979Z,94688.69
2022-08-25T19:10:54.301Z,94696.34
2022-08-25T19:13:22.679Z,94687.38
2022-08-25T19:15:51.321Z,94689.41
2022-08-25T19:18:26.231Z,94691.09
2022-08-25T19:20:56.479Z,94677.00
2022-08-25T19:23:23.478Z,94688.38
2022-08-25T19:25:50.321Z,94676.53
2022-08-25T19:28:17.234Z,94677.59
2022-08-25T19:30:49.887Z,94676.53
2022-08-25T19:33:42.353Z,94676.00
2022-08-25T19:36:08.639Z,94676.66
2022-08-25T19:38:37.572Z,94682.34
2022-08-25T19:41:09.056Z,94680.16
2022-08-25T19:43:56.781Z,94678.31
2022-08-25T19:46:33.280Z,94687.94
2022-08-25T19:49:08.760Z,94682.22
2022-08-25T19:51:56.864Z,94682.22
2022-08-25T19:54:35.553Z,94687.81
2022-08-25T19:57:06.291Z,94683.44
2022-08-25T19:59:42.633Z,94681.56
2022-08-25T20:02:17.014Z,94695.75
2022-08-25T20:04:49.649Z,94692.06
2022-08-25T20:07:23.847Z,94701.06
2022-08-25T20:09:52.371Z,94712.94
2022-08-25T20:12:20.504Z,94695.78
2022-08-25T20:14:49.121Z,94702.66
2022-08-25T20:17:23.732Z,94701.75
2022-08-25T20:19:57.187Z,94709.28
2022-08-25T20:22:27.144Z,94705.28
2022-08-25T20:25:04.010Z,94695.41
2022-08-25T20:27:47.870Z,94694.59
2022-08-25T20:30:16.791Z,94696.56
2022-08-25T20:32:45.347Z,94698.28
2022-08-25T20:35:14.421Z,94679.47
2022-08-25T20:37:44.465Z,94689.06
2022-08-25T20:40:14.521Z,94689.63
2022-08-25T20:42:43.477Z,94675.44
2022-08-25T20:45:12.837Z,94694.91
2022-08-25T20:47:39.669Z,94693.16
2022-08-25T20:50:09.293Z,94695.50
2022-08-25T20:52:37.394Z,94708.50
2022-08-25T20:55:10.062Z,94699.97
2022-08-25T20:57:37.075Z,94704.31
2022-08-25T21:00:04.910Z,94696.16
2022-08-25T21:02:31.812Z,94693.00
2022-08-25T21:04:58.667Z,94698.28
2022-08-25T21:07:26.100Z,94699.84
2022-08-25T21:09:55.064Z,94699.91
2022-08-25T21:12:22.036Z,94708.31
2022-08-25T21:14:49.068Z,94700.41
2022-08-25T21:17:19.231Z,94700.19
2022-08-25T21:22:18.562Z,94710.53
2022-08-25T21:24:46.004Z,94702.72
2022-08-25T21:27:13.125Z,94699.56
2022-08-25T21:29:44.632Z,94706.47
2022-08-25T21:32:22.225Z,94713.38
2022-08-25T21:34:53.976Z,94705.03
2022-08-25T21:37:21.490Z,94705.88
2022-08-25T21:39:48.412Z,94708.72
2022-08-25T21:42:15.244Z,94709.72
2022-08-25T21:44:42.321Z,94709.94
2022-08-25T21:47:09.375Z,94703.44
2022-08-25T21:49:37.288Z,94700.53
2022-08-25T21:52:05.510Z,94699.50
2022-08-25T21:54:32.664Z,94705.94
2022-08-25T21:57:02.632Z,94708.50
2022-08-25T21:59:36.112Z,94706.97
2022-08-25T22:02:07.486Z,94701.66
2022-08-25T22:04:34.642Z,94697.97
2022-08-25T22:07:02.836Z,94701.66
2022-08-25T22:09:30.628Z,94700.09
2022-08-25T22:11:58.681Z,94696.38
2022-08-25T22:14:27.244Z,94692.47
2022-08-25T22:16:55.294Z,94693.81
2022-08-25T22:19:23.041Z,94686.97
2022-08-25T22:21:51.824Z,94694.38
2022-08-25T22:24:19.495Z,94687.97
2022-08-25T22:26:48.509Z,94686.66
2022-08-25T22:29:25.009Z,94680.59
2022-08-25T22:31:59.593Z,94690.38
2022-08-25T22:34:32.854Z,94682.53
2022-08-25T22:37:04.228Z,94681.50
2022-08-25T22:39:34.255Z,94676.59
2022-08-25T22:42:02.958Z,94672.31
2022-08-25T22:44:30.042Z,94678.34
2022-08-25T22:46:56.879Z,94670.94
2022-08-25T22:49:23.724Z,94668.25
2022-08-25T22:51:50.883Z,94660.56
2022-08-25T22:54:18.052Z,94664.00
2022-08-25T22:56:44.878Z,94666.66
2022-08-25T22:59:13.220Z,94661.59
2022-08-25T23:01:42.864Z,94669.13
2022-08-25T23:04:10.715Z,94661.66
2022-08-25T23:06:38.161Z,94669.78
2022-08-25T23:09:08.315Z,94667.88
2022-08-25T23:11:38.597Z,94667.81
2022-08-25T23:14:08.367Z,94666.16
2022-08-25T23:16:35.462Z,94668.03
2022-08-25T23:19:02.400Z,94663.03
2022-08-25T23:21:47.853Z,94660.47
2022-08-25T23:24:29.224Z,94666.31
2022-08-25T23:27:01.629Z,94665.88
2022-08-25T23:29:30.144Z,94660.13
2022-08-25T23:31:58.228Z,94657.09
2022-08-25T23:34:25.770Z,94658.75
2022-08-25T23:36:52.853Z,94646.97
2022-08-25T23:39:21.619Z,94659.81
2022-08-25T23:41:49.442Z,94651.88
2022-08-25T23:44:17.513Z,94655.59
2022-08-25T23:46:47.355Z,94641.41
2022-08-25T23:49:18.547Z,94646.41
2022-08-25T23:51:47.541Z,94650.31
2022-08-25T23:54:15.903Z,94617.94
2022-08-25T23:56:45.020Z,94627.78
2022-08-25T23:59:24.903Z,94651.44
